createdAt,value
2018-08-16T00:01:53.875Z,21.21
2018-08-16T00:06:57.560Z,21.19
2018-08-16T00:12:01.292Z,21.07
2018-08-16T00:17:05.211Z,20.90
2018-08-16T00:22:08.768Z,20.75
2018-08-16T00:27:12.567Z,20.59
2018-08-16T00:32:16.294Z,20.44
2018-08-16T00:37:20.017Z,20.30
2018-08-16T00:42:23.548Z,20.13
2018-08-16T00:47:27.144Z,20.02
2018-08-16T00:52:30.865Z,19.90
2018-08-16T00:57:34.582Z,19.74
2018-08-16T01:02:38.298Z,19.62
2018-08-16T01:07:41.971Z,19.48
2018-08-16T01:12:45.543Z,19.30
2018-08-16T01:17:49.198Z,19.17
2018-08-16T01:22:52.927Z,19.07
2018-08-16T01:27:56.742Z,19.04
2018-08-16T01:33:00.482Z,18.96
2018-08-16T01:38:04.090Z,18.83
2018-08-16T01:43:08.816Z,18.76
2018-08-16T01:48:13.091Z,18.72
2018-08-16T01:53:16.629Z,18.60
2018-08-16T01:58:20.368Z,18.51
2018-08-16T02:03:24.047Z,18.41
2018-08-16T02:08:27.672Z,18.28
2018-08-16T02:13:31.238Z,18.09
2018-08-16T02:18:34.867Z,18.10
2018-08-16T02:23:38.414Z,18.07
2018-08-16T02:28:42.082Z,18.04
2018-08-16T02:33:45.712Z,18.00
2018-08-16T02:38:49.591Z,17.92
2018-08-16T02:43:53.162Z,17.86
2018-08-16T02:48:56.866Z,17.82
2018-08-16T02:54:00.460Z,17.63
2018-08-16T02:59:04.128Z,17.46
2018-08-16T03:04:07.853Z,17.54
2018-08-16T03:09:12.010Z,17.42
2018-08-16T03:14:15.667Z,17.39
2018-08-16T03:19:19.423Z,17.44
2018-08-16T03:24:22.956Z,17.37
2018-08-16T03:29:26.728Z,17.20
2018-08-16T03:34:30.337Z,17.04
2018-08-16T03:39:34.129Z,16.90
2018-08-16T03:44:37.752Z,16.99
2018-08-16T03:49:41.416Z,17.03
2018-08-16T03:54:45.067Z,17.03
2018-08-16T03:59:48.738Z,16.98
2018-08-16T04:04:52.358Z,16.92
2018-08-16T04:09:56.033Z,16.99
2018-08-16T04:14:59.596Z,16.98
2018-08-16T04:20:03.897Z,16.93
2018-08-16T04:25:07.465Z,16.84
2018-08-16T04:30:17.111Z,16.88
2018-08-16T04:35:20.744Z,16.93
2018-08-16T04:40:24.361Z,16.96
2018-08-16T04:45:27.945Z,17.08
2018-08-16T04:50:31.579Z,17.00
2018-08-16T04:55:35.125Z,17.52
2018-08-16T05:00:38.868Z,18.17
2018-08-16T05:05:42.495Z,18.78
2018-08-16T05:10:46.125Z,18.64
2018-08-16T05:15:49.830Z,18.48
2018-08-16T05:20:53.932Z,18.12
2018-08-16T05:25:57.582Z,17.77
2018-08-16T05:31:01.273Z,17.85
2018-08-16T05:36:05.158Z,18.12
2018-08-16T05:41:08.764Z,18.44
2018-08-16T05:46:22.483Z,18.65
2018-08-16T05:51:26.109Z,18.93
2018-08-16T05:56:29.735Z,19.06
2018-08-16T06:01:33.517Z,19.20
2018-08-16T06:06:37.075Z,19.30
2018-08-16T06:11:40.686Z,19.48
2018-08-16T06:16:44.420Z,19.70
2018-08-16T06:21:48.087Z,20.06
2018-08-16T06:26:51.893Z,20.27
2018-08-16T06:31:55.631Z,20.53
2018-08-16T06:36:59.292Z,20.66
2018-08-16T06:42:03.262Z,20.89
2018-08-16T06:47:06.922Z,21.11
2018-08-16T06:52:10.634Z,21.28
2018-08-16T06:57:14.970Z,21.19
2018-08-16T07:02:18.618Z,21.32
2018-08-16T07:07:22.301Z,21.35
2018-08-16T07:12:26.018Z,21.48
2018-08-16T07:17:29.777Z,21.59
2018-08-16T07:22:34.693Z,21.71
2018-08-16T07:27:38.593Z,21.75
2018-08-16T07:32:42.224Z,22.07
2018-08-16T07:37:45.853Z,22.21
2018-08-16T07:42:49.491Z,22.45
2018-08-16T07:47:53.541Z,22.46
2018-08-16T07:52:57.186Z,22.19
2018-08-16T07:58:00.836Z,22.40
2018-08-16T08:03:04.484Z,22.70
2018-08-16T08:08:08.935Z,22.86
2018-08-16T08:13:12.725Z,23.12
2018-08-16T08:18:16.361Z,23.06
2018-08-16T08:23:25.780Z,23.22
2018-08-16T08:28:29.429Z,23.51
2018-08-16T08:33:33.142Z,23.44
2018-08-16T08:38:36.683Z,23.68
2018-08-16T08:43:51.559Z,23.73
2018-08-16T08:48:55.341Z,23.73
2018-08-16T08:54:43.993Z,24.07
2018-08-16T08:59:47.578Z,24.32
2018-08-16T09:04:51.289Z,24.51
2018-08-16T09:11:10.348Z,24.58
2018-08-16T09:16:19.261Z,24.21
2018-08-16T09:21:22.790Z,24.32
2018-08-16T09:26:32.911Z,24.40
2018-08-16T09:31:47.959Z,24.73
2018-08-16T09:36:52.353Z,24.70
2018-08-16T09:41:57.072Z,24.87
2018-08-16T09:47:14.203Z,24.82
2018-08-16T09:52:19.014Z,25.15
2018-08-16T09:57:22.636Z,25.28
2018-08-16T10:02:26.317Z,25.59
2018-08-16T10:07:29.916Z,25.71
2018-08-16T10:12:33.745Z,25.62
2018-08-16T10:17:37.432Z,25.80
2018-08-16T10:22:41.451Z,26.18
2018-08-16T10:27:44.946Z,26.21
2018-08-16T10:32:48.698Z,26.04
2018-08-16T10:37:52.352Z,26.38
2018-08-16T10:42:55.956Z,26.76
2018-08-16T10:47:59.491Z,26.86
2018-08-16T10:53:03.209Z,27.11
2018-08-16T10:58:06.978Z,27.10
2018-08-16T11:03:13.659Z,27.13
2018-08-16T11:08:17.397Z,27.36
2018-08-16T11:13:21.210Z,27.52
2018-08-16T11:18:24.802Z,26.90
2018-08-16T11:23:28.387Z,27.27
2018-08-16T11:28:32.240Z,26.99
2018-08-16T11:33:35.978Z,27.17
2018-08-16T11:38:39.820Z,27.66
2018-08-16T11:43:43.921Z,27.42
2018-08-16T11:48:47.730Z,27.44
2018-08-16T11:53:51.566Z,27.60
2018-08-16T11:58:56.102Z,27.43
2018-08-16T12:03:59.705Z,27.35
2018-08-16T12:09:03.623Z,27.55
2018-08-16T12:14:07.616Z,27.88
2018-08-16T12:19:11.571Z,28.04
2018-08-16T12:24:15.348Z,28.08
2018-08-16T12:29:18.991Z,27.84
2018-08-16T12:34:22.603Z,28.05
2018-08-16T12:39:40.376Z,28.29
2018-08-16T12:44:45.361Z,28.31
2018-08-16T12:49:48.987Z,28.18
2018-08-16T12:54:52.665Z,27.98
2018-08-16T12:59:56.329Z,28.62
2018-08-16T13:05:00.098Z,28.83
2018-08-16T13:10:04.248Z,28.69
2018-08-16T13:15:15.954Z,28.81
2018-08-16T13:20:19.890Z,28.92
2018-08-16T13:25:25.332Z,29.13
2018-08-16T13:30:30.347Z,28.61
2018-08-16T13:35:46.987Z,29.00
2018-08-16T13:40:52.947Z,29.20
2018-08-16T13:45:57.999Z,29.26
2018-08-16T13:51:02.483Z,29.09
2018-08-16T13:56:07.922Z,29.08
2018-08-16T14:01:11.517Z,29.10
2018-08-16T14:06:15.177Z,29.31
2018-08-16T14:11:18.786Z,29.23
2018-08-16T14:16:22.390Z,29.60
2018-08-16T14:21:26.019Z,29.77
2018-08-16T14:26:29.633Z,29.56
2018-08-16T14:31:33.716Z,29.56
2018-08-16T14:36:38.041Z,29.67
2018-08-16T14:41:42.051Z,29.90
2018-08-16T14:46:45.666Z,29.88
2018-08-16T14:51:49.370Z,29.87
2018-08-16T14:56:53.073Z,29.86
2018-08-16T15:01:56.615Z,29.83
2018-08-16T15:07:00.355Z,29.81
2018-08-16T15:12:03.894Z,29.69
2018-08-16T15:17:07.537Z,29.87
2018-08-16T15:22:28.997Z,30.06
2018-08-16T15:27:32.683Z,30.05
2018-08-16T15:32:36.405Z,29.81
2018-08-16T15:37:40.198Z,29.52
2018-08-16T15:42:43.822Z,29.49
2018-08-16T15:47:47.465Z,29.31
2018-08-16T15:52:51.029Z,29.30
2018-08-16T15:57:54.661Z,29.22
2018-08-16T16:02:58.187Z,29.17
2018-08-16T16:08:01.891Z,29.28
2018-08-16T16:13:05.510Z,29.17
2018-08-16T16:18:09.329Z,29.06
2018-08-16T16:23:12.907Z,29.04
2018-08-16T16:28:17.526Z,29.02
2018-08-16T16:33:21.165Z,28.83
2018-08-16T16:38:25.082Z,28.80
2018-08-16T16:43:28.624Z,28.73
2018-08-16T16:48:32.452Z,28.74
2018-08-16T16:53:36.108Z,28.63
2018-08-16T16:58:40.437Z,28.38
2018-08-16T17:03:44.582Z,28.42
2018-08-16T17:08:48.240Z,28.59
2018-08-16T17:13:52.878Z,29.35
2018-08-16T17:18:56.581Z,29.32
2018-08-16T17:24:00.630Z,29.12
2018-08-16T17:29:04.291Z,29.02
2018-08-16T17:34:07.929Z,29.27
2018-08-16T17:39:12.024Z,29.37
2018-08-16T17:44:15.570Z,29.23
2018-08-16T17:49:19.240Z,28.65
2018-08-16T17:54:22.759Z,28.02
2018-08-16T17:59:26.746Z,27.65
2018-08-16T18:04:30.400Z,27.33
2018-08-16T18:09:34.039Z,27.05
2018-08-16T18:14:38.082Z,26.75
2018-08-16T18:19:41.974Z,26.47
2018-08-16T18:24:45.608Z,26.24
2018-08-16T18:29:49.281Z,25.97
2018-08-16T18:34:53.046Z,25.69
2018-08-16T18:39:57.043Z,25.55
2018-08-16T18:45:00.747Z,25.36
2018-08-16T18:50:04.467Z,25.13
2018-08-16T18:55:08.396Z,25.14
2018-08-16T19:00:14.595Z,24.87
2018-08-16T19:05:18.383Z,24.67
2018-08-16T19:10:22.009Z,24.51
2018-08-16T19:15:25.530Z,24.35
2018-08-16T19:20:29.160Z,24.11
2018-08-16T19:25:32.759Z,24.02
2018-08-16T19:30:36.377Z,23.83
2018-08-16T19:35:39.965Z,23.74
2018-08-16T19:40:43.588Z,23.54
2018-08-16T19:45:47.127Z,23.36
2018-08-16T19:50:51.441Z,23.22
2018-08-16T19:55:55.064Z,23.10
2018-08-16T20:00:58.967Z,22.96
2018-08-16T20:06:03.026Z,22.82
2018-08-16T20:11:07.428Z,22.72
2018-08-16T20:16:11.085Z,22.49
2018-08-16T20:21:14.764Z,22.36
2018-08-16T20:26:18.419Z,22.16
2018-08-16T20:31:22.796Z,22.03
2018-08-16T20:36:26.483Z,21.85
2018-08-16T20:41:30.222Z,21.79
2018-08-16T20:46:34.575Z,21.75
2018-08-16T20:51:38.859Z,21.64
2018-08-16T20:56:42.992Z,21.57
2018-08-16T21:01:49.284Z,21.44
2018-08-16T21:06:53.893Z,21.37
2018-08-16T21:11:58.455Z,21.30
2018-08-16T21:17:02.098Z,21.21
2018-08-16T21:22:05.987Z,21.13
2018-08-16T21:27:09.641Z,21.05
2018-08-16T21:32:13.493Z,20.94
2018-08-16T21:37:16.979Z,20.87
2018-08-16T21:42:20.588Z,20.91
2018-08-16T21:47:24.913Z,20.76
2018-08-16T21:52:28.569Z,20.62
2018-08-16T21:57:32.718Z,20.63
2018-08-16T22:02:36.413Z,20.50
2018-08-16T22:08:12.913Z,20.40
2018-08-16T22:13:16.557Z,20.29
2018-08-16T22:18:20.292Z,20.24
2018-08-16T22:23:23.947Z,20.23
2018-08-16T22:28:27.848Z,20.12
2018-08-16T22:33:31.967Z,20.08
2018-08-16T22:38:35.487Z,20.00
2018-08-16T22:43:39.298Z,19.86
2018-08-16T22:48:42.808Z,19.87
2018-08-16T22:53:46.436Z,19.78
2018-08-16T22:58:50.090Z,19.68
2018-08-16T23:03:53.715Z,19.62
2018-08-16T23:08:57.389Z,18.99
2018-08-16T23:14:01.051Z,18.86
2018-08-16T23:19:04.586Z,18.86
2018-08-16T23:24:08.314Z,18.59
2018-08-16T23:29:12.562Z,18.69
2018-08-16T23:34:16.808Z,18.74
2018-08-16T23:39:20.993Z,18.93
2018-08-16T23:44:24.662Z,18.97
2018-08-16T23:49:28.318Z,19.05
2018-08-16T23:54:32.010Z,19.05
2018-08-16T23:59:35.833Z,18.99
